Time;durP1;ratioP1;P1;durP2;ratioP2;P2;SDS_P1;SDS_P2;PMS_P1;PMS_P2;Temp;Humidity;BMP_temperature;BMP_pressure;BME280_temperature;BME280_humidity;BME280_pressure;Samples;Min_cycle;Max_cycle;Signal;HPM_P1;HPM_P2
2022/05/18 00:00:07;;;;;;;7.57;4.17;;;;;;;19.11;100.00;99562.41;5069153;28;20188;-84
2022/05/18 00:02:36;;;;;;;7.47;4.00;;;;;;;19.14;100.00;99559.44;5071653;28;20195;-84
2022/05/18 00:05:05;;;;;;;7.27;4.37;;;;;;;19.00;100.00;99565.22;5067892;28;20219;-84
2022/05/18 00:07:36;;;;;;;5.63;4.10;;;;;;;18.71;100.00;99559.84;5071775;28;20291;-84
2022/05/18 00:10:05;;;;;;;5.53;4.03;;;;;;;18.73;100.00;99562.41;5069447;28;20192;-84
2022/05/18 00:12:35;;;;;;;6.57;4.00;;;;;;;18.80;100.00;99558.16;5069499;28;20199;-84
2022/05/18 00:15:03;;;;;;;9.20;4.70;;;;;;;18.83;100.00;99564.13;5068585;28;20216;-84
2022/05/18 00:17:34;;;;;;;7.97;4.20;;;;;;;18.87;100.00;99557.47;5017692;28;20216;-83
2022/05/18 00:20:03;;;;;;;5.83;4.13;;;;;;;19.04;100.00;99565.81;5068690;28;20322;-84
2022/05/18 00:22:31;;;;;;;6.27;4.20;;;;;;;18.86;100.00;99566.50;5065375;28;20196;-84
2022/05/18 00:25:01;;;;;;;7.07;4.00;;;;;;;18.87;100.00;99565.53;5072906;28;20199;-83
2022/05/18 00:27:29;;;;;;;7.07;4.47;;;;;;;18.91;100.00;99555.34;5073697;28;20236;-83
2022/05/18 00:29:59;;;;;;;6.30;4.30;;;;;;;18.88;100.00;99561.84;5067668;28;20196;-83
2022/05/18 00:32:27;;;;;;;5.93;4.03;;;;;;;18.83;100.00;99561.44;5067556;28;20196;-83
2022/05/18 00:34:55;;;;;;;5.27;4.40;;;;;;;18.72;100.00;99563.38;5070143;28;20213;-83
2022/05/18 00:37:23;;;;;;;5.57;4.23;;;;;;;18.77;100.00;99562.00;5064052;28;20608;-84
2022/05/18 00:39:52;;;;;;;6.40;4.10;;;;;;;18.77;100.00;99559.31;5072539;28;20192;-84
2022/05/18 00:42:21;;;;;;;6.57;4.50;;;;;;;18.73;100.00;99571.31;5071537;28;20220;-83
2022/05/18 00:44:50;;;;;;;6.10;4.57;;;;;;;18.59;100.00;99569.00;5069712;28;20278;-83
2022/05/18 00:47:21;;;;;;;7.13;4.80;;;;;;;18.57;100.00;99569.13;5065877;28;20203;-84
2022/05/18 00:50:00;;;;;;;7.33;4.60;;;;;;;18.44;100.00;99563.19;5073706;28;20207;-84
2022/05/18 00:52:36;;;;;;;6.83;5.00;;;;;;;18.52;100.00;99559.78;5068855;28;20192;-84
2022/05/18 00:55:09;;;;;;;10.07;4.40;;;;;;;18.55;100.00;99559.53;5068436;28;20477;-84
2022/05/18 00:57:41;;;;;;;6.40;4.80;;;;;;;18.51;100.00;99560.78;5073508;28;20201;-84
2022/05/18 01:00:14;;;;;;;6.27;4.43;;;;;;;18.56;100.00;99564.75;5067890;28;20195;-84
2022/05/18 01:02:52;;;;;;;8.57;4.57;;;;;;;18.66;100.00;99556.75;5067934;28;20607;-84
2022/05/18 01:05:26;;;;;;;6.77;4.17;;;;;;;18.66;100.00;99551.38;5066421;28;20191;-83
2022/05/18 01:07:58;;;;;;;6.63;4.17;;;;;;;18.58;100.00;99561.94;5067359;28;20196;-83
2022/05/18 01:10:28;;;;;;;7.60;4.40;;;;;;;18.48;100.00;99564.59;5067233;28;20199;-84
2022/05/18 01:12:57;;;;;;;6.43;4.30;;;;;;;18.60;100.00;99560.78;5070332;28;20192;-84
2022/05/18 01:15:25;;;;;;;6.60;4.60;;;;;;;18.39;100.00;99568.13;5021077;28;20220;-84
2022/05/18 01:17:58;;;;;;;8.27;4.57;;;;;;;18.45;100.00;99566.72;5070533;28;20275;-84
2022/05/18 01:20:31;;;;;;;8.63;4.90;;;;;;;18.36;100.00;99567.56;5064344;28;20196;-84
2022/05/18 01:23:13;;;;;;;7.53;4.90;;;;;;;18.31;100.00;99565.25;5073408;28;20195;-83
2022/05/18 01:25:56;;;;;;;6.17;4.43;;;;;;;18.33;100.00;99573.16;5061550;28;20291;-84
2022/05/18 01:28:31;;;;;;;4.17;3.67;;;;;;;18.19;100.00;99571.72;5049060;28;20208;-84
2022/05/18 01:30:59;;;;;;;7.67;4.00;;;;;;;18.08;100.00;99575.38;5048575;28;20204;-84
2022/05/18 01:33:28;;;;;;;4.47;4.07;;;;;;;17.83;100.00;99583.84;5049817;28;20208;-84
2022/05/18 01:35:57;;;;;;;5.13;4.00;;;;;;;17.96;100.00;99595.22;5054817;28;20216;-84
2022/05/18 01:38:27;;;;;;;4.30;3.90;;;;;;;18.05;100.00;99593.53;5053165;28;20200;-83
2022/05/18 01:41:03;;;;;;;5.63;4.07;;;;;;;18.16;100.00;99599.66;5005685;28;20193;-83
2022/05/18 01:43:37;;;;;;;8.27;4.50;;;;;;;18.09;100.00;99595.81;5054312;28;20197;-84
2022/05/18 01:46:08;;;;;;;7.13;4.40;;;;;;;18.14;100.00;99595.41;5050121;28;20308;-84
2022/05/18 01:48:40;;;;;;;6.57;4.10;;;;;;;18.11;100.00;99587.66;5056924;28;20189;-84
2022/05/18 01:51:10;;;;;;;8.83;4.60;;;;;;;18.11;100.00;99587.66;5053272;28;20189;-84
2022/05/18 01:53:40;;;;;;;6.03;4.30;;;;;;;18.13;100.00;99588.34;5053678;28;20208;-84
2022/05/18 01:56:09;;;;;;;7.47;4.60;;;;;;;18.13;100.00;99594.56;5047265;28;20217;-84
2022/05/18 01:58:39;;;;;;;6.37;4.30;;;;;;;18.18;100.00;99591.50;5054945;28;20196;-84
2022/05/18 02:01:07;;;;;;;5.03;4.07;;;;;;;18.12;100.00;99592.03;5056708;28;20200;-84
2022/05/18 02:03:36;;;;;;;6.10;3.87;;;;;;;18.21;100.00;99589.38;5057230;28;20193;-83
2022/05/18 02:06:04;;;;;;;6.53;4.30;;;;;;;18.21;100.00;99585.84;5050586;28;20197;-84
2022/05/18 02:08:33;;;;;;;4.83;4.10;;;;;;;18.14;100.00;99592.72;5052926;28;20201;-83
2022/05/18 02:11:01;;;;;;;5.33;4.23;;;;;;;18.00;100.00;99591.28;5050406;28;20217;-83
2022/05/18 02:13:31;;;;;;;5.43;3.77;;;;;;;18.07;100.00;99597.81;5054219;28;20185;-83
2022/05/18 02:16:04;;;;;;;5.20;4.30;;;;;;;17.96;100.00;99587.19;5052540;28;20297;-84
2022/05/18 02:18:32;;;;;;;4.50;3.90;;;;;;;18.00;100.00;99586.75;5050469;28;20185;-84
2022/05/18 02:21:03;;;;;;;5.03;4.03;;;;;;;17.91;100.00;99597.44;5052895;28;20204;-84
2022/05/18 02:23:31;;;;;;;7.07;4.03;;;;;;;17.98;100.00;99599.47;5050111;28;20229;-84
2022/05/18 02:26:06;;;;;;;6.33;4.30;;;;;;;17.99;100.00;99598.47;5051761;28;20197;-84
2022/05/18 02:28:35;;;;;;;5.53;4.60;;;;;;;18.04;100.00;99600.72;5076649;28;20198;-84
2022/05/18 02:31:05;;;;;;;5.67;4.50;;;;;;;18.00;100.00;99607.34;5070974;28;20189;-83
2022/05/18 02:33:34;;;;;;;6.97;4.43;;;;;;;17.95;100.00;99607.78;5067094;28;20279;-83
2022/05/18 02:36:02;;;;;;;6.13;4.50;;;;;;;17.91;100.00;99610.84;5068481;28;20220;-84
2022/05/18 02:38:31;;;;;;;5.73;4.87;;;;;;;17.86;100.00;99599.69;5072772;28;20200;-84
2022/05/18 02:41:00;;;;;;;5.73;4.33;;;;;;;17.84;100.00;99602.47;5069889;28;20257;-83
2022/05/18 02:43:28;;;;;;;8.23;4.33;;;;;;;17.75;100.00;99592.56;5074003;28;20207;-84
2022/05/18 02:46:07;;;;;;;6.43;3.90;;;;;;;17.90;100.00;99593.06;5069878;28;20207;-84
2022/05/18 02:48:36;;;;;;;9.20;4.47;;;;;;;17.93;100.00;99592.78;5071638;28;20712;-83
2022/05/18 02:51:06;;;;;;;6.87;4.13;;;;;;;17.92;100.00;99588.41;5067570;28;20200;-84
2022/05/18 02:53:35;;;;;;;7.57;4.30;;;;;;;17.90;100.00;99590.38;5069530;28;20271;-84
2022/05/18 02:56:07;;;;;;;6.33;4.33;;;;;;;17.76;100.00;99596.97;5074955;28;20222;-83
2022/05/18 02:58:37;;;;;;;6.03;4.00;;;;;;;17.86;100.00;99589.81;5070056;28;20203;-83
2022/05/18 03:01:09;;;;;;;5.33;4.43;;;;;;;17.65;100.00;99592.47;5072186;28;20200;-84
2022/05/18 03:03:38;;;;;;;4.87;4.37;;;;;;;17.50;100.00;99593.81;5069329;28;20215;-83
2022/05/18 03:06:10;;;;;;;5.03;3.90;;;;;;;17.57;100.00;99589.63;5069033;28;20222;-83
2022/05/18 03:08:42;;;;;;;5.90;4.40;;;;;;;17.57;100.00;99592.31;5065049;28;20193;-83
2022/05/18 03:11:11;;;;;;;4.70;3.77;;;;;;;17.48;100.00;99603.81;5063870;28;20196;-83
2022/05/18 03:13:40;;;;;;;6.83;3.80;;;;;;;17.49;100.00;99599.31;5071289;28;20215;-83
2022/05/18 03:16:12;;;;;;;8.13;4.30;;;;;;;17.45;100.00;99602.22;5077081;28;20220;-83
2022/05/18 03:18:40;;;;;;;6.47;4.30;;;;;;;17.48;100.00;99600.28;5026991;28;20586;-83
2022/05/18 03:23:56;;;;;;;5.07;4.03;;;;;;;17.46;100.00;99611.09;5075831;28;20200;-84
2022/05/18 03:26:26;;;;;;;7.07;4.30;;;;;;;17.33;100.00;99611.31;5072056;28;20256;-84
2022/05/18 03:28:56;;;;;;;8.83;4.30;;;;;;;17.43;100.00;99608.69;5074940;28;20192;-83
2022/05/18 03:31:28;;;;;;;5.73;3.87;;;;;;;17.52;100.00;99610.59;5077557;28;20261;-83
2022/05/18 03:33:58;;;;;;;5.77;4.50;;;;;;;17.25;100.00;99612.94;5070915;28;20227;-83
2022/05/18 03:36:26;;;;;;;6.47;4.00;;;;;;;17.38;100.00;99617.13;5072048;28;20223;-83
2022/05/18 03:38:55;;;;;;;6.73;4.17;;;;;;;17.28;100.00;99620.72;5077305;28;20212;-83
2022/05/18 03:41:24;;;;;;;4.50;3.87;;;;;;;17.28;100.00;99618.03;5070504;28;20200;-81
2022/05/18 03:43:52;;;;;;;6.10;4.23;;;;;;;17.31;100.00;99615.09;5080632;28;20203;-84
2022/05/18 03:46:21;;;;;;;7.37;4.80;;;;;;;17.27;100.00;99621.66;5070516;28;20232;-83
2022/05/18 03:48:50;;;;;;;4.90;4.07;;;;;;;17.21;100.00;99617.69;5069297;28;20199;-83
2022/05/18 03:51:20;;;;;;;8.00;4.30;;;;;;;17.55;100.00;99620.19;5070389;28;20188;-84
2022/05/18 03:53:48;;;;;;;6.37;4.70;;;;;;;17.50;100.00;99606.34;5070252;28;20311;-84
2022/05/18 03:56:16;;;;;;;5.77;4.83;;;;;;;17.52;100.00;99607.06;5071293;28;20216;-83
2022/05/18 03:58:46;;;;;;;6.37;4.33;;;;;;;17.68;100.00;99615.50;5072155;28;20271;-84
2022/05/18 04:01:14;;;;;;;6.63;4.37;;;;;;;17.42;100.00;99615.88;5073142;28;20200;-82
2022/05/18 04:03:45;;;;;;;6.10;4.40;;;;;;;17.53;100.00;99631.03;5078829;28;20231;-83
2022/05/18 04:06:17;;;;;;;6.87;4.50;;;;;;;17.49;100.00;99626.09;5072584;28;20250;-83
2022/05/18 04:08:46;;;;;;;5.70;4.80;;;;;;;17.26;100.00;99631.53;5070796;28;20279;-84
2022/05/18 04:11:14;;;;;;;8.20;4.87;;;;;;;17.22;100.00;99638.13;5066503;28;20189;-84
2022/05/18 04:13:43;;;;;;;5.63;4.43;;;;;;;17.20;100.00;99642.78;5074345;28;20639;-83
2022/05/18 04:16:12;;;;;;;6.80;4.60;;;;;;;17.07;100.00;99655.47;5011799;28;20214;-83
2022/05/18 04:18:40;;;;;;;6.37;4.53;;;;;;;16.76;100.00;99652.66;5007511;28;20202;-83
2022/05/18 04:21:09;;;;;;;4.67;4.07;;;;;;;16.97;100.00;99658.06;5006499;28;20209;-83
2022/05/18 04:23:41;;;;;;;6.70;4.70;;;;;;;16.96;100.00;99660.84;5010537;28;20203;-83
2022/05/18 04:26:10;;;;;;;9.60;4.60;;;;;;;16.90;100.00;99654.22;5008958;28;20205;-83
2022/05/18 04:28:38;;;;;;;7.10;4.67;;;;;;;17.13;100.00;99666.53;5012878;28;20206;-83
2022/05/18 04:31:07;;;;;;;8.07;4.13;;;;;;;17.14;100.00;99670.91;5005851;28;20313;-83
2022/05/18 04:33:35;;;;;;;5.03;4.50;;;;;;;17.24;100.00;99662.09;5020554;28;20192;-83
2022/05/18 04:36:04;;;;;;;8.03;4.73;;;;;;;17.28;100.00;99667.09;5070363;28;20200;-83
2022/05/18 04:38:33;;;;;;;7.20;4.60;;;;;;;16.86;100.00;99666.97;5067488;28;20231;-83
2022/05/18 04:41:03;;;;;;;8.47;5.00;;;;;;;17.06;100.00;99676.03;5069347;28;20262;-83
2022/05/18 04:43:33;;;;;;;6.03;4.33;;;;;;;17.24;100.00;99680.84;5070214;28;20196;-83
2022/05/18 04:46:02;;;;;;;8.77;4.83;;;;;;;17.26;100.00;99701.16;5069120;28;20196;-84
2022/05/18 04:48:32;;;;;;;7.03;4.40;;;;;;;17.45;100.00;99698.63;5071005;28;20208;-83
2022/05/18 04:51:04;;;;;;;6.97;4.50;;;;;;;17.48;100.00;99702.06;5064666;28;20192;-83
2022/05/18 04:53:34;;;;;;;9.70;5.53;;;;;;;17.54;100.00;99704.22;5071839;28;20184;-83
2022/05/18 04:56:05;;;;;;;6.73;5.17;;;;;;;17.49;100.00;99707.28;5068722;28;20372;-82
2022/05/18 04:58:37;;;;;;;8.63;5.07;;;;;;;17.51;100.00;99713.34;5070678;28;20184;-83
2022/05/18 05:01:08;;;;;;;6.97;4.97;;;;;;;17.44;100.00;99707.66;4954878;28;20215;-83
2022/05/18 05:03:37;;;;;;;6.83;4.97;;;;;;;17.61;100.00;99716.13;4953364;29;20301;-83
2022/05/18 05:06:06;;;;;;;7.67;4.83;;;;;;;17.71;100.00;99712.56;4952168;29;20196;-84
2022/05/18 05:08:37;;;;;;;8.83;5.37;;;;;;;17.73;100.00;99717.78;4949691;29;20279;-83
2022/05/18 05:11:08;;;;;;;6.57;4.83;;;;;;;17.65;100.00;99720.22;4953007;29;20687;-84
2022/05/18 05:13:38;;;;;;;7.70;4.93;;;;;;;17.81;100.00;99722.50;4945421;29;20200;-83
2022/05/18 05:16:08;;;;;;;5.67;5.07;;;;;;;17.86;100.00;99723.81;4950554;29;20212;-84
2022/05/18 05:18:38;;;;;;;6.07;4.50;;;;;;;18.00;100.00;99717.25;4955607;28;20346;-84
2022/05/18 05:21:07;;;;;;;8.00;5.33;;;;;;;18.14;100.00;99710.69;4987315;28;20195;-83
2022/05/18 05:23:35;;;;;;;6.10;5.50;;;;;;;18.27;100.00;99712.19;4984640;28;20709;-83
2022/05/18 05:26:04;;;;;;;7.00;5.03;;;;;;;18.44;100.00;99708.06;5037635;28;20327;-83
2022/05/18 05:28:34;;;;;;;6.53;5.40;;;;;;;18.25;100.00;99706.13;5073785;28;20197;-84
2022/05/18 05:31:03;;;;;;;5.97;4.90;;;;;;;18.34;100.00;99717.91;5069253;28;20192;-83
2022/05/18 05:33:32;;;;;;;8.07;5.23;;;;;;;18.23;100.00;99723.31;5074037;28;20242;-83
2022/05/18 05:36:01;;;;;;;6.63;4.70;;;;;;;18.33;100.00;99718.84;5065971;28;20203;-83
2022/05/18 05:38:29;;;;;;;5.97;4.40;;;;;;;18.49;100.00;99724.59;5066655;28;20223;-83
2022/05/18 05:40:59;;;;;;;8.60;4.63;;;;;;;18.51;100.00;99727.13;5067275;28;20201;-83
2022/05/18 05:43:28;;;;;;;14.80;4.97;;;;;;;18.58;100.00;99722.94;5069383;28;20201;-83
2022/05/18 05:46:00;;;;;;;17.97;5.83;;;;;;;18.73;100.00;99723.44;5067659;28;20207;-83
2022/05/18 05:48:30;;;;;;;8.47;4.53;;;;;;;18.88;100.00;99719.38;5067507;28;20189;-84
2022/05/18 05:51:00;;;;;;;6.80;4.53;;;;;;;18.91;100.00;99713.72;5070209;28;20204;-84
2022/05/18 05:53:28;;;;;;;7.73;4.50;;;;;;;19.00;100.00;99710.22;5065052;28;20204;-83
2022/05/18 05:56:02;;;;;;;7.93;4.97;;;;;;;19.00;100.00;99720.09;5072053;28;20199;-84
2022/05/18 05:58:33;;;;;;;4.73;4.20;;;;;;;19.04;100.00;99718.88;5065219;28;20225;-83
2022/05/18 06:01:07;;;;;;;4.90;3.80;;;;;;;19.15;100.00;99713.38;5063753;28;20200;-83
2022/05/18 06:03:36;;;;;;;7.53;4.30;;;;;;;18.99;100.00;99719.25;5067567;28;20196;-83
2022/05/18 06:06:05;;;;;;;8.43;4.30;;;;;;;19.11;100.00;99712.81;5064542;28;20212;-82
2022/05/18 06:08:34;;;;;;;4.97;3.67;;;;;;;19.05;100.00;99717.88;5069361;28;20195;-83
2022/05/18 06:11:04;;;;;;;4.97;3.73;;;;;;;19.06;100.00;99709.69;5072340;28;20663;-83
2022/05/18 06:13:33;;;;;;;9.10;3.93;;;;;;;19.15;100.00;99705.31;5074773;28;20623;-84
2022/05/18 06:16:02;;;;;;;5.93;3.90;;;;;;;19.09;100.00;99705.84;5069725;28;20211;-82
2022/05/18 06:18:32;;;;;;;5.30;3.47;;;;;;;19.20;100.00;99713.78;5071186;28;20224;-84
2022/05/18 06:21:00;;;;;;;6.07;3.40;;;;;;;19.24;100.00;99712.53;5076988;28;20669;-83
2022/05/18 06:23:28;;;;;;;5.23;3.63;;;;;;;19.27;100.00;99725.66;5067232;28;20196;-83
2022/05/18 06:26:01;;;;;;;6.50;3.73;;;;;;;19.49;100.00;99721.00;5072580;28;20248;-83
2022/05/18 06:28:29;;;;;;;8.03;3.57;;;;;;;19.44;100.00;99718.75;5076614;28;20193;-83
2022/05/18 06:30:58;;;;;;;5.93;3.57;;;;;;;19.59;100.00;99714.72;5076649;28;20201;-83
2022/05/18 06:33:26;;;;;;;4.83;3.20;;;;;;;19.82;100.00;99723.31;5072373;28;20288;-83
2022/05/18 06:35:56;;;;;;;5.53;3.40;;;;;;;19.86;100.00;99727.41;5076306;28;20194;-84
2022/05/18 06:38:24;;;;;;;4.97;3.07;;;;;;;20.06;100.00;99727.38;5073016;28;20300;-83
2022/05/18 06:43:40;;;;;;;5.63;3.33;;;;;;;20.27;100.00;99728.06;5071176;28;20192;-83
2022/05/18 06:46:09;;;;;;;6.00;3.03;;;;;;;20.16;100.00;99715.59;5072482;28;20201;-83
2022/05/18 06:48:39;;;;;;;4.00;2.83;;;;;;;20.46;100.00;99721.75;5072539;28;20196;-84
2022/05/18 06:51:19;;;;;;;6.77;3.10;;;;;;;20.36;100.00;99721.75;5072316;28;20204;-83
2022/05/18 06:53:51;;;;;;;5.73;3.00;;;;;;;20.30;100.00;99719.69;5071085;28;20200;-83
2022/05/18 06:56:21;;;;;;;5.40;3.20;;;;;;;20.38;100.00;99716.25;5012378;28;20202;-83
2022/05/18 06:58:50;;;;;;;4.10;2.97;;;;;;;20.45;100.00;99720.91;5010783;28;20747;-83
2022/05/18 07:01:19;;;;;;;5.67;2.80;;;;;;;20.50;100.00;99712.41;5008247;28;20195;-83
2022/05/18 07:03:48;;;;;;;4.13;2.70;;;;;;;20.68;100.00;99715.16;5010208;28;20194;-83
2022/05/18 07:06:21;;;;;;;3.73;2.90;;;;;;;20.85;100.00;99725.16;5014501;28;20281;-84
2022/05/18 07:08:51;;;;;;;4.30;2.70;;;;;;;20.80;100.00;99730.97;5011168;28;20285;-83
2022/05/18 07:11:20;;;;;;;3.23;2.33;;;;;;;20.91;100.00;99727.22;5011495;28;20198;-84
2022/05/18 07:13:51;;;;;;;5.57;2.80;;;;;;;20.86;100.00;99734.94;5020857;28;20196;-83
2022/05/18 07:16:20;;;;;;;4.13;2.93;;;;;;;21.05;100.00;99732.13;5070470;28;20216;-83
2022/05/18 07:18:49;;;;;;;4.37;2.80;;;;;;;20.96;100.00;99733.03;5071273;28;20220;-83
2022/05/18 07:21:20;;;;;;;4.63;2.60;;;;;;;21.10;100.00;99731.66;5072811;28;20200;-83
2022/05/18 07:23:49;;;;;;;5.03;2.77;;;;;;;21.08;100.00;99722.88;5072125;28;20214;-82
2022/05/18 07:26:18;;;;;;;4.87;3.13;;;;;;;21.11;100.00;99731.50;5071128;28;20216;-83
2022/05/18 07:28:47;;;;;;;4.70;2.57;;;;;;;21.19;100.00;99732.59;5068315;28;20215;-82
2022/05/18 07:31:16;;;;;;;6.90;3.07;;;;;;;21.21;100.00;99730.59;5065678;28;20224;-83
2022/05/18 07:34:04;;;;;;;5.73;2.80;;;;;;;21.34;100.00;99725.72;5075453;28;20192;-82
2022/05/18 07:36:34;;;;;;;5.00;2.83;;;;;;;21.23;100.00;99726.75;5070031;28;20196;-82
2022/05/18 07:39:03;;;;;;;7.20;3.03;;;;;;;21.15;100.00;99722.13;5065844;28;20224;-82
2022/05/18 07:41:33;;;;;;;5.55;3.00;;;;;;;21.25;100.00;99727.44;5064311;28;20208;-82
2022/05/18 07:44:01;;;;;;;6.87;2.87;;;;;;;21.41;100.00;99729.47;5074606;28;20675;-83
2022/05/18 07:46:29;;;;;;;6.30;3.10;;;;;;;21.43;100.00;99722.97;5071305;28;20230;-82
2022/05/18 07:48:58;;;;;;;5.07;2.77;;;;;;;21.61;100.00;99727.47;5071029;28;20204;-82
2022/05/18 07:51:26;;;;;;;4.57;2.72;;;;;;;21.50;100.00;99727.72;5071661;28;20240;-82
2022/05/18 07:53:56;;;;;;;5.20;2.70;;;;;;;21.57;100.00;99731.50;5065650;28;20204;-83
2022/05/18 07:56:24;;;;;;;4.97;2.95;;;;;;;21.61;100.00;99728.31;5069449;28;20200;-83
2022/05/18 07:58:53;;;;;;;7.27;2.83;;;;;;;21.37;100.00;99728.94;5070173;28;20231;-82
2022/05/18 08:01:22;;;;;;;4.17;2.87;;;;;;;21.16;100.00;99731.06;5069919;28;20710;-82
2022/05/18 08:03:51;;;;;;;5.20;3.20;;;;;;;21.17;100.00;99730.06;5074312;28;20204;-83
2022/05/18 08:06:20;;;;;;;4.00;2.63;;;;;;;21.38;100.00;99727.09;5074005;28;20200;-82
2022/05/18 08:08:49;;;;;;;4.50;2.90;;;;;;;21.69;100.00;99722.16;5068970;28;20490;-83
2022/05/18 08:16:51;;;;;;;6.60;2.70;;;;;;;22.39;100.00;99722.19;5073866;28;20227;-82
2022/05/18 08:19:19;;;;;;;6.27;3.10;;;;;;;22.42;100.00;99725.44;5065530;28;20220;-83
2022/05/18 08:21:48;;;;;;;3.40;2.90;;;;;;;22.35;100.00;99720.81;5067038;28;20201;-83
2022/05/18 08:24:16;;;;;;;3.80;2.60;;;;;;;22.41;100.00;99718.34;5063253;28;20199;-83
2022/05/18 08:26:47;;;;;;;4.95;2.90;;;;;;;22.59;100.00;99717.44;5070770;28;20250;-82
2022/05/18 08:29:15;;;;;;;5.93;2.90;;;;;;;22.70;100.00;99726.09;5069109;28;20192;-83
2022/05/18 08:31:49;;;;;;;5.10;2.80;;;;;;;22.62;100.00;99722.50;5068857;28;20211;-83
2022/05/18 08:34:18;;;;;;;5.70;2.90;;;;;;;22.71;100.00;99719.66;5073420;28;20193;-83
2022/05/18 08:36:47;;;;;;;5.00;2.88;;;;;;;22.87;100.00;99720.75;5066393;28;20204;-83
2022/05/18 08:39:15;;;;;;;4.20;2.75;;;;;;;22.95;100.00;99723.50;5062444;28;20212;-83
2022/05/18 08:41:46;;;;;;;5.22;3.13;;;;;;;23.25;100.00;99719.34;5073400;28;20275;-83
2022/05/18 08:44:24;;;;;;;3.47;2.70;;;;;;;23.30;100.00;99723.25;5073288;28;20267;-83
2022/05/18 08:47:06;;;;;;;6.00;3.13;;;;;;;23.36;100.00;99724.47;5062235;28;20196;-83
2022/05/18 08:49:40;;;;;;;5.65;2.97;;;;;;;23.45;100.00;99715.34;5066702;28;20200;-83
2022/05/18 08:52:25;;;;;;;4.07;2.55;;;;;;;23.69;100.00;99712.69;5067915;28;20210;-83
2022/05/18 08:55:12;;;;;;;5.60;2.60;;;;;;;23.68;100.00;99718.28;5072325;28;20185;-82
2022/05/18 08:57:45;;;;;;;6.30;2.70;;;;;;;23.74;100.00;99720.31;5073421;28;20207;-83
2022/05/18 09:00:18;;;;;;;6.80;2.70;;;;;;;24.10;100.00;99720.78;5065982;28;20705;-83
2022/05/18 09:02:53;;;;;;;5.93;2.67;;;;;;;24.09;100.00;99721.81;5065245;28;20211;-82
2022/05/18 09:05:31;;;;;;;3.47;2.80;;;;;;;24.15;100.00;99723.84;5069547;28;20220;-82
2022/05/18 09:08:06;;;;;;;7.45;3.10;;;;;;;24.26;100.00;99720.75;5071272;28;20185;-83
2022/05/18 09:10:40;;;;;;;6.43;2.75;;;;;;;24.43;100.00;99723.47;5072569;28;20242;-82
2022/05/18 09:13:10;;;;;;;5.65;3.17;;;;;;;24.39;100.00;99719.41;5070619;28;20271;-82
2022/05/18 09:15:50;;;;;;;7.00;2.70;;;;;;;24.50;100.00;99719.88;5072327;28;20199;-82
2022/05/18 09:18:26;;;;;;;4.00;2.92;;;;;;;24.88;100.00;99713.81;5069619;28;20206;-83
2022/05/18 09:21:07;;;;;;;7.10;2.70;;;;;;;24.90;100.00;99717.19;5069054;28;20211;-83
2022/05/18 09:23:51;;;;;;;4.22;2.75;;;;;;;24.80;100.00;99709.25;5072624;28;20200;-82
2022/05/18 09:26:51;;;;;;;5.80;2.90;;;;;;;25.03;100.00;99709.38;5068150;28;20234;-82
2022/05/18 09:29:28;;;;;;;5.07;3.05;;;;;;;24.98;100.00;99704.44;5070109;28;20199;-82
2022/05/18 09:32:30;;;;;;;4.45;2.97;;;;;;;24.62;100.00;99700.56;5072900;28;20204;-82
2022/05/18 09:35:25;;;;;;;4.63;2.80;;;;;;;25.10;100.00;99696.81;5073258;28;20204;-83
2022/05/18 09:37:57;;;;;;;4.13;2.97;;;;;;;24.80;100.00;99698.44;5067228;28;20203;-82
2022/05/18 09:40:29;;;;;;;3.72;2.63;;;;;;;25.01;100.00;99704.09;5063132;28;20216;-83
2022/05/18 09:43:05;;;;;;;3.92;2.67;;;;;;;25.44;100.00;99704.53;5065156;28;20197;-83
2022/05/18 09:45:38;;;;;;;7.57;2.90;;;;;;;25.34;100.00;99698.50;5067093;28;20639;-83
2022/05/18 09:48:10;;;;;;;6.68;3.00;;;;;;;25.61;100.00;99706.09;5068994;28;20200;-82
2022/05/18 09:50:40;;;;;;;5.38;2.90;;;;;;;24.94;100.00;99708.53;5076414;28;20203;-81
2022/05/18 09:53:09;;;;;;;5.70;2.75;;;;;;;25.36;100.00;99701.88;5076735;28;20322;-82
2022/05/18 09:55:38;;;;;;;5.25;2.75;;;;;;;25.47;100.00;99704.16;5075178;28;20192;-82
2022/05/18 09:58:13;;;;;;;3.78;2.60;;;;;;;25.70;100.00;99696.06;5066857;28;20212;-82
2022/05/18 10:00:44;;;;;;;4.93;2.85;;;;;;;25.93;100.00;99690.59;5070817;28;20215;-82
2022/05/18 10:08:57;;;;;;;6.13;2.47;;;;;;;26.39;100.00;99698.66;5074767;28;20220;-83
2022/05/18 10:11:31;;;;;;;7.28;3.03;;;;;;;26.55;100.00;99690.31;5075771;28;20216;-82
2022/05/18 10:14:06;;;;;;;4.40;2.42;;;;;;;26.52;98.09;99687.97;5073554;28;20198;-82
2022/05/18 10:16:43;;;;;;;4.45;2.50;;;;;;;27.01;95.29;99696.31;5073077;28;20195;-83
2022/05/18 10:19:18;;;;;;;7.45;2.75;;;;;;;26.97;94.65;99686.88;5069135;28;20211;-83
2022/05/18 10:21:52;;;;;;;5.18;2.88;;;;;;;27.29;95.18;99684.75;5072062;28;20199;-83
2022/05/18 10:24:37;;;;;;;4.85;2.45;;;;;;;27.07;92.19;99687.44;5074681;28;20223;-83
2022/05/18 10:27:18;;;;;;;5.78;2.80;;;;;;;26.64;92.97;99685.63;5067659;28;20342;-82
2022/05/18 10:30:01;;;;;;;7.05;2.80;;;;;;;26.90;93.31;99685.94;5066964;28;20224;-82
2022/05/18 10:32:32;;;;;;;2.70;2.33;;;;;;;27.15;91.01;99678.34;5071461;28;20220;-83
2022/05/18 10:35:02;;;;;;;5.57;2.55;;;;;;;27.14;82.68;99675.81;5070365;28;20207;-83
2022/05/18 10:37:33;;;;;;;3.05;2.35;;;;;;;26.21;91.05;99688.13;5075715;28;20338;-81
2022/05/18 10:40:05;;;;;;;3.30;2.20;;;;;;;27.05;92.10;99678.66;5071168;28;20212;-83
2022/05/18 10:42:44;;;;;;;3.92;2.17;;;;;;;27.44;85.72;99674.66;5072468;28;20252;-83
2022/05/18 10:45:32;;;;;;;4.60;2.17;;;;;;;27.95;81.91;99678.06;5067320;28;20196;-83
2022/05/18 10:48:08;;;;;;;3.10;2.55;;;;;;;27.81;85.12;99676.28;5075682;28;20189;-82
2022/05/18 10:50:39;;;;;;;4.80;2.50;;;;;;;27.35;85.87;99676.66;5075727;28;20674;-82
2022/05/18 10:53:30;;;;;;;4.25;2.38;;;;;;;28.26;80.66;99671.34;5067275;28;20642;-82
2022/05/18 10:56:07;;;;;;;4.70;2.58;;;;;;;27.73;81.68;99668.25;5071211;28;20256;-83
2022/05/18 10:58:40;;;;;;;5.07;2.40;;;;;;;28.43;80.56;99666.47;5068932;28;20192;-83
2022/05/18 11:01:13;;;;;;;3.75;2.17;;;;;;;28.74;66.62;99657.81;5071013;28;20217;-82
2022/05/18 11:03:51;;;;;;;4.80;2.50;;;;;;;28.72;69.84;99663.47;5064280;28;20210;-83
2022/05/18 11:06:22;;;;;;;4.25;2.13;;;;;;;28.87;71.23;99655.16;5074919;28;20196;-83
2022/05/18 11:08:51;;;;;;;5.28;2.10;;;;;;;27.44;73.50;99663.78;5073715;28;20196;-82
2022/05/18 11:11:36;;;;;;;3.47;2.53;;;;;;;27.87;72.88;99659.16;5068942;28;20280;-83
2022/05/18 11:14:15;;;;;;;4.60;2.40;;;;;;;28.54;73.07;99645.97;5072300;28;20203;-83
2022/05/18 11:16:56;;;;;;;4.18;2.10;;;;;;;27.75;70.17;99646.28;5063304;28;20196;-83
2022/05/18 11:19:48;;;;;;;3.28;2.15;;;;;;;27.88;70.18;99646.38;5063653;28;20211;-82
2022/05/18 11:22:28;;;;;;;3.80;2.00;;;;;;;27.34;68.30;99646.94;5068326;28;20208;-83
2022/05/18 11:25:08;;;;;;;4.20;1.80;;;;;;;27.98;66.63;99646.84;5068231;28;20211;-83
2022/05/18 11:28:02;;;;;;;3.70;2.17;;;;;;;28.04;67.64;99648.81;5074744;28;20266;-83
2022/05/18 11:30:39;;;;;;;2.85;2.15;;;;;;;28.08;65.49;99641.91;5074967;28;20196;-82
2022/05/18 11:33:21;;;;;;;2.95;1.95;;;;;;;28.29;62.42;99640.19;5072729;28;20198;-82
2022/05/18 11:36:01;;;;;;;5.22;1.95;;;;;;;28.99;58.64;99641.78;5073544;28;20650;-83
2022/05/18 11:38:50;;;;;;;3.35;2.05;;;;;;;29.28;61.50;99640.59;5074731;28;20254;-83
2022/05/18 11:41:31;;;;;;;4.00;2.20;;;;;;;29.19;64.63;99639.09;5071162;28;20216;-82
2022/05/18 11:44:04;;;;;;;3.08;2.13;;;;;;;29.61;62.83;99635.19;5072882;28;20184;-82
2022/05/18 11:46:53;;;;;;;2.97;1.98;;;;;;;28.81;65.12;99623.22;5067048;28;20204;-82
2022/05/18 11:49:25;;;;;;;3.53;1.98;;;;;;;28.60;71.15;99634.28;5067019;28;20246;-85
2022/05/18 11:52:29;;;;;;;4.63;2.25;;;;;;;27.81;73.40;99634.59;5071486;28;20227;-82
2022/05/18 11:55:10;;;;;;;3.58;2.30;;;;;;;27.67;77.93;99631.75;5069451;28;20196;-81
2022/05/18 11:57:48;;;;;;;4.38;2.40;;;;;;;28.58;74.25;99631.75;5069066;28;20192;-82
2022/05/18 12:00:39;;;;;;;4.18;2.15;;;;;;;29.23;65.29;99633.00;5073851;28;20686;-82
2022/05/18 12:03:31;;;;;;;3.38;2.00;;;;;;;29.02;64.25;99625.84;5070722;28;20214;-82
2022/05/18 12:06:18;;;;;;;3.63;2.05;;;;;;;29.02;66.19;99620.38;5073861;28;20283;-82